Time;durP1;ratioP1;P1;durP2;ratioP2;P2;SDS_P1;SDS_P2;PMS_P1;PMS_P2;Temp;Humidity;BMP_temperature;BMP_pressure;BME280_temperature;BME280_humidity;BME280_pressure;Samples;Min_cycle;Max_cycle;Signal;HPM_P1;HPM_P2
2023/02/14 00:09:51;;;;;;;20.20;9.80;;;;;;;5.03;91.93;101977.87;682570;1261;138686;-81
2023/02/14 00:24:54;;;;;;;19.20;8.40;;;;;;;5.21;92.54;101984.67;682781;1259;141827;-81
2023/02/14 00:39:57;;;;;;;19.50;9.80;;;;;;;5.33;92.81;101988.35;682693;1259;138615;-81
2023/02/14 00:55:01;;;;;;;25.70;10.70;;;;;;;5.51;92.49;102004.16;682892;1258;138844;-81
2023/02/14 01:10:05;;;;;;;20.30;9.90;;;;;;;5.53;93.67;102005.65;682636;1262;138698;-81
2023/02/14 01:25:08;;;;;;;14.70;9.40;;;;;;;5.58;93.85;102016.58;683149;1259;138368;-81
2023/02/14 01:40:12;;;;;;;28.00;10.80;;;;;;;5.53;94.24;102018.68;682885;1260;138860;-82
2023/02/14 01:55:22;;;;;;;24.50;10.00;;;;;;;5.50;95.04;102028.86;682798;1260;138902;-82
2023/02/14 02:10:25;;;;;;;26.10;11.70;;;;;;;5.48;95.75;102021.12;682971;1262;138980;-81
2023/02/14 02:26:10;;;;;;;24.60;11.70;;;;;;;5.47;97.07;102022.02;683035;1263;138929;-81
2023/02/14 02:41:44;;;;;;;27.90;12.30;;;;;;;5.50;98.77;102023.98;682579;1260;139176;-81
2023/02/14 02:56:54;;;;;;;31.70;10.70;;;;;;;5.46;99.74;102027.09;683045;1259;138715;-80
2023/02/14 03:12:28;;;;;;;19.10;10.60;;;;;;;5.46;99.75;102035.59;683133;1263;139343;-79
2023/02/14 03:27:47;;;;;;;28.00;12.40;;;;;;;5.52;100.00;102039.87;683299;1263;139661;-80
2023/02/14 03:42:56;;;;;;;22.60;11.40;;;;;;;5.66;99.93;102039.15;683049;1261;138809;-81
2023/02/14 03:58:10;;;;;;;22.90;11.00;;;;;;;5.66;100.00;102041.92;682838;1263;140357;-80
2023/02/14 04:13:14;;;;;;;24.40;10.30;;;;;;;5.70;100.00;102049.08;683209;1263;139497;-81
2023/02/14 04:28:17;;;;;;;28.70;10.90;;;;;;;5.77;100.00;102056.24;682970;1263;138978;-81
2023/02/14 04:43:20;;;;;;;26.50;10.80;;;;;;;5.90;100.00;102057.84;683039;1263;139337;-80
2023/02/14 04:58:23;;;;;;;25.70;11.20;;;;;;;5.91;100.00;102061.77;682879;1263;139152;-80
2023/02/14 05:13:27;;;;;;;26.30;11.60;;;;;;;5.94;100.00;102062.37;682693;1263;139754;-81
2023/02/14 05:28:30;;;;;;;32.70;14.70;;;;;;;5.95;100.00;102071.70;682736;1265;138973;-81
2023/02/14 05:43:34;;;;;;;35.00;16.00;;;;;;;5.94;100.00;102083.38;682977;1263;138603;-81
2023/02/14 05:58:37;;;;;;;33.90;17.70;;;;;;;6.02;100.00;102097.52;682936;1263;139736;-81
2023/02/14 06:13:40;;;;;;;26.40;13.20;;;;;;;6.01;100.00;102101.20;682646;1265;139202;-81
2023/02/14 06:28:44;;;;;;;23.90;12.10;;;;;;;6.07;100.00;102116.79;682868;1275;139528;-81
2023/02/14 06:43:47;;;;;;;30.20;15.80;;;;;;;5.99;100.00;102131.66;683000;1262;139015;-81
2023/02/14 06:58:50;;;;;;;44.50;20.00;;;;;;;5.99;100.00;102141.74;682463;1262;139851;-81
2023/02/14 07:13:54;;;;;;;46.30;22.70;;;;;;;6.17;100.00;102162.08;682642;1260;140391;-81
2023/02/14 07:28:57;;;;;;;46.50;23.00;;;;;;;6.18;100.00;102184.61;682569;1260;139228;-82
2023/02/14 07:44:00;;;;;;;28.30;14.40;;;;;;;6.26;100.00;102189.87;682678;1263;139829;-82
2023/02/14 07:59:03;;;;;;;56.40;23.50;;;;;;;6.33;99.91;102201.37;682695;1263;139100;-83
2023/02/14 08:14:07;;;;;;;147.70;65.30;;;;;;;6.42;99.83;102208.16;682739;1262;138557;-83
2023/02/14 08:29:10;;;;;;;41.00;24.70;;;;;;;6.59;99.39;102215.83;682919;1263;139284;-82
2023/02/14 08:44:15;;;;;;;456.20;195.50;;;;;;;6.59;99.09;102221.06;683047;1260;138806;-82
2023/02/14 08:59:18;;;;;;;126.60;68.30;;;;;;;6.71;99.54;102225.46;682689;1263;169095;-83
2023/02/14 09:14:23;;;;;;;30.70;16.20;;;;;;;6.83;98.93;102223.36;683042;1262;139147;-83
2023/02/14 09:29:27;;;;;;;35.30;17.20;;;;;;;7.19;97.96;102222.92;682877;1262;138808;-82
2023/02/14 09:44:52;;;;;;;38.30;17.90;;;;;;;7.42;97.10;102223.85;682872;1263;138962;-83
2023/02/14 10:00:10;;;;;;;147.60;67.90;;;;;;;7.57;95.81;102235.23;682574;1263;138683;-82
2023/02/14 10:15:20;;;;;;;36.70;17.40;;;;;;;7.60;94.27;102236.81;683011;1263;139742;-83
2023/02/14 10:30:23;;;;;;;118.70;41.30;;;;;;;7.69;93.35;102229.63;682807;1263;139003;-82
2023/02/14 10:45:38;;;;;;;55.50;21.00;;;;;;;8.13;92.07;102225.38;682953;1263;139106;-83
2023/02/14 11:01:12;;;;;;;56.10;28.10;;;;;;;8.42;91.56;102231.86;682648;1262;138894;-83
2023/02/14 11:16:31;;;;;;;57.80;28.90;;;;;;;8.51;90.23;102226.52;682773;1263;138770;-83
2023/02/14 11:31:37;;;;;;;32.10;17.60;;;;;;;8.74;88.22;102223.67;683155;1260;139351;-82
2023/02/14 11:46:41;;;;;;;37.30;20.40;;;;;;;9.39;85.74;102210.09;682816;1263;139371;-83
2023/02/14 12:01:59;;;;;;;28.00;15.70;;;;;;;10.28;83.93;102194.10;682796;1259;138667;-83
2023/02/14 12:17:43;;;;;;;34.20;19.80;;;;;;;11.41;79.56;102182.30;682525;1265;140085;-83
2023/02/14 12:32:57;;;;;;;39.60;21.60;;;;;;;11.46;78.36;102172.32;681486;1260;139431;-83
2023/02/14 12:48:19;;;;;;;23.40;12.60;;;;;;;13.48;74.84;102165.28;682455;1261;139840;-82
2023/02/14 13:04:01;;;;;;;35.40;18.70;;;;;;;13.90;71.10;102158.38;682507;1263;140120;-83
2023/02/14 13:19:39;;;;;;;14.60;10.40;;;;;;;13.70;68.86;102147.38;683011;1260;139052;-92
2023/02/14 13:34:45;;;;;;;21.70;12.30;;;;;;;15.14;68.26;102148.42;682993;1261;138261;-91
2023/02/14 13:50:04;;;;;;;26.40;13.20;;;;;;;17.32;63.57;102140.23;680156;1275;137619;-90
2023/02/14 14:05:31;;;;;;;33.50;17.80;;;;;;;22.23;59.35;102128.82;680579;1270;139288;-91
2023/02/14 14:20:42;;;;;;;15.10;8.60;;;;;;;22.83;53.64;102124.23;681388;1273;138055;-92
2023/02/14 14:42:42;;;;;;;13.20;9.70;;;;;;;21.19;50.84;102122.83;659445;1294;545029;-93
2023/02/14 14:57:51;;;;;;;110.50;50.20;;;;;;;21.20;53.03;102121.55;674721;1275;137873;-92
2023/02/14 15:28:28;;;;;;;45.00;25.20;;;;;;;15.70;58.25;102122.02;675386;1268;138741;-95
2023/02/14 15:43:36;;;;;;;59.20;31.20;;;;;;;13.98;60.72;102117.04;678366;1266;136608;-91
2023/02/14 15:58:39;;;;;;;475.40;175.40;;;;;;;12.59;62.99;102122.13;677261;1265;137616;-93
2023/02/14 16:13:46;;;;;;;419.80;160.40;;;;;;;11.14;65.09;102128.38;678768;1264;136958;-94
2023/02/14 16:28:49;;;;;;;254.40;114.30;;;;;;;9.83;67.38;102141.04;676883;1264;138346;-90
2023/02/14 16:43:55;;;;;;;304.20;132.30;;;;;;;8.98;69.27;102152.16;678108;1264;137139;-86
2023/02/14 16:58:59;;;;;;;128.20;58.60;;;;;;;8.54;70.67;102160.86;676814;1265;138862;-89
2023/02/14 17:14:03;;;;;;;155.20;70.70;;;;;;;8.09;72.32;102166.44;676451;1266;139087;-88
2023/02/14 17:29:07;;;;;;;137.40;60.50;;;;;;;7.91;74.01;102168.36;675959;1270;139243;-95
2023/02/14 17:44:11;;;;;;;138.80;63.10;;;;;;;7.95;75.17;102160.15;676674;1263;138551;-94
2023/02/14 17:59:16;;;;;;;887.00;346.50;;;;;;;7.98;76.21;102158.65;678524;1267;138352;-91
2023/02/14 18:14:20;;;;;;;318.70;127.20;;;;;;;7.85;77.88;102159.57;678378;1262;137502;-88
2023/02/14 18:29:24;;;;;;;224.60;89.10;;;;;;;7.76;78.67;102163.29;674625;1279;139951;-92
2023/02/14 18:44:28;;;;;;;154.50;61.00;;;;;;;7.68;79.37;102162.10;676749;1262;137307;-95
2023/02/14 18:59:31;;;;;;;152.70;67.60;;;;;;;7.75;80.54;102161.63;678903;1270;139572;-91
2023/02/14 19:14:35;;;;;;;167.50;73.30;;;;;;;7.74;81.09;102155.58;678411;1259;138018;-94
2023/02/14 19:29:40;;;;;;;294.60;108.60;;;;;;;7.72;80.27;102146.59;677762;1263;137270;-93
2023/02/14 19:44:45;;;;;;;226.90;87.20;;;;;;;7.36;79.97;102149.45;676308;1263;138762;-93
2023/02/14 19:59:51;;;;;;;104.70;48.40;;;;;;;7.03;80.24;102147.55;678616;1258;140499;-92
2023/02/14 20:14:56;;;;;;;75.50;35.50;;;;;;;6.61;80.37;102143.95;678055;1258;138460;-93
2023/02/14 20:30:00;;;;;;;141.30;63.20;;;;;;;6.44;80.54;102149.14;680280;1260;139053;-89
2023/02/14 20:45:08;;;;;;;86.20;49.40;;;;;;;6.38;81.56;102148.21;681954;1263;137586;-88
2023/02/14 21:00:12;;;;;;;105.80;52.50;;;;;;;6.59;83.02;102145.45;679248;1260;138868;-90
2023/02/14 21:15:16;;;;;;;69.30;37.30;;;;;;;6.75;83.01;102145.08;677778;1261;138457;-92
2023/02/14 21:30:19;;;;;;;89.40;40.30;;;;;;;6.82;83.72;102138.00;676096;1257;139212;-91
2023/02/14 22:00:46;;;;;;;412.70;177.30;;;;;;;6.73;83.34;102139.45;675363;1259;138995;-92
2023/02/14 22:15:50;;;;;;;242.80;100.80;;;;;;;6.44;84.34;102131.30;675143;1262;138897;-88
2023/02/14 22:30:58;;;;;;;133.90;57.10;;;;;;;6.39;84.97;102122.75;677451;1264;138662;-92
2023/02/14 22:46:04;;;;;;;95.60;45.20;;;;;;;6.37;85.10;102135.02;677344;1262;138498;-91
2023/02/14 23:01:17;;;;;;;65.40;29.40;;;;;;;6.34;85.27;102135.33;679996;1262;138457;-92
2023/02/14 23:31:43;;;;;;;67.40;35.50;;;;;;;6.11;86.14;102125.65;675416;1264;138833;-87
2023/02/14 23:46:48;;;;;;;99.00;44.00;;;;;;;6.11;86.36;102127.90;676807;1263;138750;-90
